Time;durP1;ratioP1;P1;durP2;ratioP2;P2;SDS_P1;SDS_P2;PMS_P1;PMS_P2;Temp;Humidity;BMP_temperature;BMP_pressure;BME280_temperature;BME280_humidity;BME280_pressure;Samples;Min_cycle;Max_cycle;Signal;HPM_P1;HPM_P2
2023/10/14 00:02:15;;;;;;;12.77;7.53;;;;;;;;;;5028693;28;20640;-69
2023/10/14 00:04:46;;;;;;;9.03;7.53;;;;;;;;;;5029980;28;20624;-68
2023/10/14 00:07:17;;;;;;;8.73;7.97;;;;;;;;;;5030576;28;20628;-68
2023/10/14 00:09:50;;;;;;;15.37;8.03;;;;;;;;;;5020509;28;20673;-68
2023/10/14 00:12:20;;;;;;;11.40;8.07;;;;;;;;;;5029524;28;20644;-68
2023/10/14 00:14:53;;;;;;;10.33;8.47;;;;;;;;;;5030353;28;20641;-68
2023/10/14 00:17:21;;;;;;;10.17;8.63;;;;;;;;;;5029638;28;20651;-68
2023/10/14 00:19:55;;;;;;;14.57;8.73;;;;;;;;;;5029964;28;20644;-68
2023/10/14 00:22:24;;;;;;;10.80;8.33;;;;;;;;;;5016689;28;20662;-67
2023/10/14 00:24:52;;;;;;;14.53;8.70;;;;;;;;;;5029431;28;21167;-68
2023/10/14 00:27:22;;;;;;;11.37;9.27;;;;;;;;;;5028394;28;20644;-67
2023/10/14 00:29:50;;;;;;;9.70;8.70;;;;;;;;;;5010564;28;20727;-68
2023/10/14 00:32:20;;;;;;;15.47;8.50;;;;;;;;;;5024530;28;20729;-68
2023/10/14 00:34:48;;;;;;;15.17;9.60;;;;;;;;;;5010643;28;21332;-68
2023/10/14 00:37:18;;;;;;;12.93;9.10;;;;;;;;;;5027284;28;20645;-68
2023/10/14 00:40:00;;;;;;;14.30;9.20;;;;;;;;;;5028589;28;20633;-68
2023/10/14 00:42:29;;;;;;;13.73;9.20;;;;;;;;;;5014279;28;20719;-68
2023/10/14 00:44:58;;;;;;;12.20;8.93;;;;;;;;;;5047453;28;20636;-68
2023/10/14 00:47:26;;;;;;;11.33;9.37;;;;;;;;;;5045498;28;20763;-68
2023/10/14 00:49:56;;;;;;;10.23;9.23;;;;;;;;;;5048010;28;21072;-68
2023/10/14 00:52:29;;;;;;;9.73;8.83;;;;;;;;;;5029761;28;20678;-67
2023/10/14 00:55:12;;;;;;;15.63;9.23;;;;;;;;;;5046238;28;20634;-67
2023/10/14 00:57:54;;;;;;;15.07;9.90;;;;;;;;;;5029549;28;20649;-67
2023/10/14 01:00:34;;;;;;;16.20;9.30;;;;;;;;;;5045649;28;20693;-63
2023/10/14 01:03:07;;;;;;;13.43;9.20;;;;;;;;;;5033166;28;21213;-65
2023/10/14 01:05:35;;;;;;;16.30;10.07;;;;;;;;;;5031676;28;20611;-64
2023/10/14 01:08:11;;;;;;;15.33;9.60;;;;;;;;;;5014394;28;20605;-64
2023/10/14 01:10:41;;;;;;;14.23;9.80;;;;;;;;;;5022003;28;20606;-64
2023/10/14 01:13:13;;;;;;;18.13;9.63;;;;;;;;;;5034175;28;20671;-64
2023/10/14 01:15:45;;;;;;;13.20;10.40;;;;;;;;;;5033533;28;21211;-64
2023/10/14 01:18:14;;;;;;;15.33;9.50;;;;;;;;;;5033791;28;21221;-64
2023/10/14 01:20:43;;;;;;;18.23;9.40;;;;;;;;;;5033798;28;20699;-65
2023/10/14 01:23:14;;;;;;;18.20;10.37;;;;;;;;;;5034406;28;20626;-64
2023/10/14 01:25:47;;;;;;;11.97;9.43;;;;;;;;;;5032426;28;20610;-64
2023/10/14 01:28:21;;;;;;;19.57;10.37;;;;;;;;;;5034225;28;20611;-64
2023/10/14 01:31:23;;;;;;;17.17;9.13;;;;;;;;;;5033011;28;20647;-64
2023/10/14 01:33:51;;;;;;;13.63;10.27;;;;;;;;;;5033298;28;20638;-65
2023/10/14 01:36:20;;;;;;;17.67;8.73;;;;;;;;;;5032711;28;20711;-64
2023/10/14 01:38:58;;;;;;;12.23;9.87;;;;;;;;;;5012605;28;20639;-65
2023/10/14 01:41:29;;;;;;;13.40;10.37;;;;;;;;;;5014134;28;20596;-64
2023/10/14 01:43:59;;;;;;;10.77;9.63;;;;;;;;;;5017096;28;20686;-64
2023/10/14 01:46:30;;;;;;;10.77;9.67;;;;;;;;;;5032746;28;20615;-64
2023/10/14 01:49:08;;;;;;;12.67;10.07;;;;;;;;;;5033210;28;20697;-65
2023/10/14 01:51:37;;;;;;;15.03;9.93;;;;;;;;;;5028855;28;20618;-65
2023/10/14 01:54:09;;;;;;;12.13;9.20;;;;;;;;;;4999460;28;20630;-65
2023/10/14 01:56:40;;;;;;;16.73;9.90;;;;;;;;;;5033102;28;20557;-64
2023/10/14 01:59:09;;;;;;;15.47;10.47;;;;;;;;;;5033608;28;20645;-64
2023/10/14 02:01:41;;;;;;;15.63;10.37;;;;;;;;;;5032027;28;21197;-64
2023/10/14 02:04:10;;;;;;;13.03;11.17;;;;;;;;;;5032040;28;20616;-65
2023/10/14 02:06:43;;;;;;;16.50;10.57;;;;;;;;;;5032867;28;20971;-64
2023/10/14 02:09:13;;;;;;;11.17;9.70;;;;;;;;;;5033118;28;20679;-65
2023/10/14 02:11:41;;;;;;;17.33;10.30;;;;;;;;;;5032620;28;20627;-65
2023/10/14 02:14:11;;;;;;;18.07;9.90;;;;;;;;;;5016020;28;20615;-64
2023/10/14 02:16:44;;;;;;;10.73;9.63;;;;;;;;;;5032528;28;20679;-64
2023/10/14 02:19:21;;;;;;;12.13;9.50;;;;;;;;;;5007651;28;20601;-63
2023/10/14 02:21:57;;;;;;;15.20;10.27;;;;;;;;;;5022978;28;20615;-64
2023/10/14 02:24:28;;;;;;;9.70;8.77;;;;;;;;;;5018844;28;20955;-64
2023/10/14 02:26:57;;;;;;;13.23;10.00;;;;;;;;;;5029772;28;20619;-65
2023/10/14 02:29:26;;;;;;;17.50;9.60;;;;;;;;;;5013676;28;20644;-64
2023/10/14 02:31:54;;;;;;;13.10;9.43;;;;;;;;;;4999680;28;20620;-65
2023/10/14 02:34:22;;;;;;;15.50;9.80;;;;;;;;;;5015810;28;20628;-64
2023/10/14 02:36:51;;;;;;;13.13;9.50;;;;;;;;;;5032700;28;21274;-64
2023/10/14 02:39:26;;;;;;;13.03;10.03;;;;;;;;;;5032980;28;20624;-64
2023/10/14 02:42:07;;;;;;;10.30;8.67;;;;;;;;;;5015189;28;20708;-65
2023/10/14 02:44:44;;;;;;;16.23;9.87;;;;;;;;;;5033086;28;20639;-67
2023/10/14 02:47:13;;;;;;;13.53;8.90;;;;;;;;;;5033084;28;20594;-64
2023/10/14 02:49:42;;;;;;;14.40;9.87;;;;;;;;;;5032913;28;21093;-64
2023/10/14 02:52:11;;;;;;;21.63;9.97;;;;;;;;;;5032009;28;20971;-65
2023/10/14 02:54:42;;;;;;;15.70;9.57;;;;;;;;;;5015467;28;20623;-64
2023/10/14 02:57:23;;;;;;;14.87;8.90;;;;;;;;;;5000375;28;20683;-64
2023/10/14 02:59:55;;;;;;;13.00;8.10;;;;;;;;;;5018413;28;20584;-64
2023/10/14 03:02:27;;;;;;;10.10;7.40;;;;;;;;;;5017509;28;21023;-65
2023/10/14 03:05:12;;;;;;;11.40;7.50;;;;;;;;;;5018115;28;20584;-64
2023/10/14 03:07:50;;;;;;;8.60;7.30;;;;;;;;;;5035464;28;21191;-64
2023/10/14 03:10:28;;;;;;;11.27;7.03;;;;;;;;;;5035646;28;20657;-64
2023/10/14 03:12:58;;;;;;;6.93;6.23;;;;;;;;;;5035821;28;20641;-66
2023/10/14 03:15:30;;;;;;;7.07;6.30;;;;;;;;;;5037321;28;20616;-64
2023/10/14 03:18:01;;;;;;;8.33;5.40;;;;;;;;;;5036013;28;21027;-64
2023/10/14 03:20:39;;;;;;;6.00;5.33;;;;;;;;;;5035846;28;20604;-64
2023/10/14 03:23:11;;;;;;;10.97;6.00;;;;;;;;;;5019063;28;20610;-65
2023/10/14 03:25:41;;;;;;;8.93;5.80;;;;;;;;;;5036372;28;20600;-64
2023/10/14 03:28:14;;;;;;;12.00;5.83;;;;;;;;;;5036339;28;20699;-64
2023/10/14 03:30:45;;;;;;;11.03;5.63;;;;;;;;;;5036401;28;20635;-64
2023/10/14 03:33:14;;;;;;;9.53;5.60;;;;;;;;;;5036087;28;20646;-64
2023/10/14 03:35:43;;;;;;;10.53;6.90;;;;;;;;;;5035266;28;21164;-63
2023/10/14 03:38:33;;;;;;;8.00;5.10;;;;;;;;;;5002154;28;20963;-64
2023/10/14 03:41:03;;;;;;;10.60;6.20;;;;;;;;;;5035710;28;20616;-64
2023/10/14 03:43:44;;;;;;;10.30;4.43;;;;;;;;;;5034636;28;20671;-65
2023/10/14 03:46:12;;;;;;;8.00;4.60;;;;;;;;;;5032604;28;20731;-64
2023/10/14 03:48:47;;;;;;;11.43;4.43;;;;;;;;;;5018397;28;20615;-65
2023/10/14 03:51:24;;;;;;;3.70;3.40;;;;;;;;;;5035362;28;20996;-65
2023/10/14 03:53:53;;;;;;;7.97;3.10;;;;;;;;;;5035652;28;20583;-65
2023/10/14 03:56:25;;;;;;;6.07;3.07;;;;;;;;;;5035335;28;20698;-64
2023/10/14 03:58:59;;;;;;;3.50;3.20;;;;;;;;;;5035363;28;20599;-64
2023/10/14 04:01:33;;;;;;;7.33;3.13;;;;;;;;;;5034593;28;20596;-65
2023/10/14 04:04:14;;;;;;;4.77;2.73;;;;;;;;;;5034620;28;20596;-64
2023/10/14 04:06:51;;;;;;;5.07;3.50;;;;;;;;;;5015026;28;20588;-65
2023/10/14 04:09:24;;;;;;;5.23;3.03;;;;;;;;;;5015065;28;20618;-64
2023/10/14 04:11:57;;;;;;;4.03;2.77;;;;;;;;;;5013432;28;21255;-64
2023/10/14 04:14:28;;;;;;;6.90;3.03;;;;;;;;;;5034519;28;20639;-64
2023/10/14 04:17:10;;;;;;;5.27;3.17;;;;;;;;;;5034693;28;20981;-65
2023/10/14 04:19:46;;;;;;;4.77;3.33;;;;;;;;;;5035558;28;20612;-64
2023/10/14 04:22:31;;;;;;;10.00;3.40;;;;;;;;;;5034497;28;20610;-64
2023/10/14 04:25:19;;;;;;;5.63;3.67;;;;;;;;;;5036021;28;20593;-64
2023/10/14 04:28:17;;;;;;;9.67;3.57;;;;;;;;;;5017747;28;20580;-65
2023/10/14 04:30:47;;;;;;;7.57;3.20;;;;;;;;;;5035138;28;20663;-64
2023/10/14 04:33:21;;;;;;;8.13;3.13;;;;;;;;;;5034522;28;20620;-64
2023/10/14 04:36:09;;;;;;;5.83;3.20;;;;;;;;;;5017793;28;20647;-66
2023/10/14 04:38:42;;;;;;;4.43;3.53;;;;;;;;;;5034620;28;20587;-65
2023/10/14 04:41:14;;;;;;;6.10;2.37;;;;;;;;;;5033835;28;20608;-65
2023/10/14 04:46:46;;;;;;;2.43;2.23;;;;;;;;;;5017499;28;20731;-65
2023/10/14 04:49:17;;;;;;;4.00;1.90;;;;;;;;;;5034300;28;21148;-66
2023/10/14 04:51:48;;;;;;;5.37;3.20;;;;;;;;;;5033853;28;20726;-65
2023/10/14 04:54:20;;;;;;;3.50;2.30;;;;;;;;;;5015886;28;20606;-66
2023/10/14 04:56:48;;;;;;;8.50;2.70;;;;;;;;;;5034086;28;20645;-65
2023/10/14 04:59:24;;;;;;;5.10;3.20;;;;;;;;;;5034232;28;20977;-66
2023/10/14 05:01:55;;;;;;;3.90;2.33;;;;;;;;;;5033157;28;21210;-66
2023/10/14 05:04:29;;;;;;;5.93;2.97;;;;;;;;;;5032414;28;20611;-66
2023/10/14 05:07:03;;;;;;;5.97;2.87;;;;;;;;;;5033552;28;20611;-66
2023/10/14 05:09:39;;;;;;;2.93;2.47;;;;;;;;;;5015888;28;20959;-65
2023/10/14 05:12:08;;;;;;;3.23;2.37;;;;;;;;;;5030853;28;20696;-65
2023/10/14 05:14:37;;;;;;;6.23;2.30;;;;;;;;;;5032679;28;20628;-67
2023/10/14 05:17:16;;;;;;;4.97;2.50;;;;;;;;;;5034346;28;20619;-65
2023/10/14 05:19:47;;;;;;;5.40;2.90;;;;;;;;;;5033499;28;20615;-65
2023/10/14 05:22:23;;;;;;;3.20;2.40;;;;;;;;;;5033424;28;20604;-66
2023/10/14 05:24:55;;;;;;;5.27;2.73;;;;;;;;;;5033307;28;20584;-65
2023/10/14 05:27:35;;;;;;;6.10;2.37;;;;;;;;;;5033814;28;20637;-65
2023/10/14 05:30:06;;;;;;;6.63;2.20;;;;;;;;;;5032996;28;20582;-66
2023/10/14 05:32:36;;;;;;;4.23;2.47;;;;;;;;;;5034330;28;20665;-66
2023/10/14 05:35:09;;;;;;;3.80;2.20;;;;;;;;;;5018848;28;20675;-66
2023/10/14 05:37:41;;;;;;;4.23;2.07;;;;;;;;;;5033172;28;20616;-65
2023/10/14 05:40:13;;;;;;;6.03;2.10;;;;;;;;;;5031953;28;20677;-65
2023/10/14 05:42:45;;;;;;;3.07;1.90;;;;;;;;;;5033209;28;20652;-65
2023/10/14 05:45:14;;;;;;;5.60;3.67;;;;;;;;;;5029315;28;20619;-65
2023/10/14 05:47:46;;;;;;;11.00;9.77;;;;;;;;;;5032791;28;20636;-66
2023/10/14 05:50:17;;;;;;;4.47;3.47;;;;;;;;;;5031626;28;20612;-65
2023/10/14 05:52:46;;;;;;;5.93;2.43;;;;;;;;;;5015235;28;20614;-65
2023/10/14 05:55:19;;;;;;;2.40;1.80;;;;;;;;;;5031666;28;21036;-65
2023/10/14 05:57:48;;;;;;;4.60;2.07;;;;;;;;;;5033737;28;20599;-65
2023/10/14 06:00:25;;;;;;;4.60;2.50;;;;;;;;;;5032332;28;20646;-67
2023/10/14 06:02:55;;;;;;;8.83;2.13;;;;;;;;;;5031231;28;20626;-65
2023/10/14 06:05:24;;;;;;;5.43;2.67;;;;;;;;;;5032005;28;20620;-65
2023/10/14 06:07:59;;;;;;;6.47;2.57;;;;;;;;;;5031594;28;21018;-66
2023/10/14 06:10:29;;;;;;;4.63;2.20;;;;;;;;;;5033084;28;20623;-65
2023/10/14 06:12:57;;;;;;;11.23;2.90;;;;;;;;;;5033401;28;20612;-66
2023/10/14 06:15:26;;;;;;;4.53;2.13;;;;;;;;;;5033209;28;20670;-65
2023/10/14 06:17:56;;;;;;;3.60;2.33;;;;;;;;;;5033173;28;20627;-65
2023/10/14 06:20:26;;;;;;;5.63;2.40;;;;;;;;;;5032962;28;20608;-66
2023/10/14 06:22:59;;;;;;;3.10;2.50;;;;;;;;;;5019924;28;21148;-65
2023/10/14 06:25:29;;;;;;;3.77;2.30;;;;;;;;;;5015355;28;20607;-66
2023/10/14 06:27:58;;;;;;;5.03;2.30;;;;;;;;;;5032950;28;20977;-66
2023/10/14 06:30:26;;;;;;;13.53;1.90;;;;;;;;;;5033163;28;20634;-66
2023/10/14 06:33:01;;;;;;;4.67;3.37;;;;;;;;;;5035349;28;20999;-66
2023/10/14 06:35:29;;;;;;;4.90;2.00;;;;;;;;;;5036580;28;20611;-65
2023/10/14 06:37:58;;;;;;;3.80;2.57;;;;;;;;;;5029018;28;20624;-65
2023/10/14 06:40:35;;;;;;;5.10;2.40;;;;;;;;;;5036510;28;20996;-66
2023/10/14 06:43:07;;;;;;;8.20;6.00;;;;;;;;;;5021243;28;20763;-65
2023/10/14 06:45:35;;;;;;;4.03;2.57;;;;;;;;;;5030489;28;20620;-64
2023/10/14 06:48:09;;;;;;;6.83;2.27;;;;;;;;;;5034835;28;20973;-64
2023/10/14 06:50:38;;;;;;;4.07;1.73;;;;;;;;;;5034755;28;20614;-65
2023/10/14 06:53:08;;;;;;;3.70;2.00;;;;;;;;;;5038728;28;20631;-67
2023/10/14 06:55:39;;;;;;;2.67;1.70;;;;;;;;;;5037031;28;21076;-68
2023/10/14 06:58:08;;;;;;;5.33;2.13;;;;;;;;;;5033839;28;20612;-64
2023/10/14 07:00:38;;;;;;;3.13;1.70;;;;;;;;;;5032439;28;21120;-66
2023/10/14 07:03:12;;;;;;;9.00;2.20;;;;;;;;;;5034933;28;20960;-67
2023/10/14 07:05:46;;;;;;;7.30;2.30;;;;;;;;;;5033972;28;20604;-64
2023/10/14 07:08:14;;;;;;;3.33;1.83;;;;;;;;;;5022125;28;20603;-64
2023/10/14 07:10:43;;;;;;;2.50;1.70;;;;;;;;;;5032339;28;20685;-65
2023/10/14 07:13:12;;;;;;;5.93;1.60;;;;;;;;;;5032791;28;20620;-64
2023/10/14 07:15:42;;;;;;;3.23;1.40;;;;;;;;;;5034352;28;20628;-64
2023/10/14 07:18:13;;;;;;;2.37;1.00;;;;;;;;;;5032494;28;20616;-64
2023/10/14 07:20:41;;;;;;;3.80;1.43;;;;;;;;;;5034855;28;20614;-64
2023/10/14 07:23:10;;;;;;;1.43;0.97;;;;;;;;;;5031799;28;20622;-64
2023/10/14 07:25:39;;;;;;;2.53;1.23;;;;;;;;;;5034879;28;20642;-65
2023/10/14 07:28:09;;;;;;;1.00;0.87;;;;;;;;;;5035676;28;20611;-64
2023/10/14 07:30:38;;;;;;;1.37;1.27;;;;;;;;;;5034430;28;20628;-65
2023/10/14 07:33:06;;;;;;;2.13;1.93;;;;;;;;;;5039985;28;20736;-66
2023/10/14 07:35:36;;;;;;;2.70;1.33;;;;;;;;;;5034011;28;20624;-65
2023/10/14 07:38:04;;;;;;;1.60;1.50;;;;;;;;;;5035364;28;20612;-64
2023/10/14 07:40:34;;;;;;;2.57;1.57;;;;;;;;;;5035562;28;20623;-65
2023/10/14 07:43:07;;;;;;;2.20;2.10;;;;;;;;;;5027296;28;20634;-66
2023/10/14 07:45:36;;;;;;;2.40;1.63;;;;;;;;;;5035911;28;20615;-65
2023/10/14 07:48:08;;;;;;;2.60;1.57;;;;;;;;;;5033777;28;21409;-64
2023/10/14 07:50:38;;;;;;;2.00;1.90;;;;;;;;;;5032042;28;20626;-65
2023/10/14 07:53:12;;;;;;;4.83;2.13;;;;;;;;;;5032246;28;20670;-65
2023/10/14 07:55:41;;;;;;;4.53;1.63;;;;;;;;;;5032022;28;20616;-65
2023/10/14 07:58:10;;;;;;;1.73;1.63;;;;;;;;;;5017200;28;20628;-64
2023/10/14 08:00:39;;;;;;;2.47;2.37;;;;;;;;;;5016677;28;20624;-65
2023/10/14 08:03:09;;;;;;;2.93;1.70;;;;;;;;;;5024581;28;20620;-64
2023/10/14 08:05:38;;;;;;;1.60;1.50;;;;;;;;;;5035936;28;20606;-65
2023/10/14 08:08:09;;;;;;;2.30;2.07;;;;;;;;;;5027060;28;20640;-65
2023/10/14 08:10:41;;;;;;;1.40;1.30;;;;;;;;;;5023174;28;20612;-64
2023/10/14 08:13:10;;;;;;;2.53;2.20;;;;;;;;;;5040415;28;20658;-65
2023/10/14 08:15:38;;;;;;;2.13;2.03;;;;;;;;;;5025235;28;20666;-65
2023/10/14 08:18:07;;;;;;;1.70;1.60;;;;;;;;;;5033317;28;21184;-65
2023/10/14 08:20:35;;;;;;;2.70;2.00;;;;;;;;;;5034573;28;20622;-65
2023/10/14 08:23:09;;;;;;;2.30;2.00;;;;;;;;;;5032647;28;20618;-65
2023/10/14 08:25:38;;;;;;;2.03;1.57;;;;;;;;;;5035002;28;20581;-64
2023/10/14 08:28:07;;;;;;;4.50;1.80;;;;;;;;;;5033409;28;20649;-66
2023/10/14 08:30:45;;;;;;;4.63;1.40;;;;;;;;;;5034605;28;20634;-64
2023/10/14 08:33:13;;;;;;;1.47;1.37;;;;;;;;;;5014582;28;21331;-64
2023/10/14 08:35:42;;;;;;;1.83;1.70;;;;;;;;;;5034317;28;20620;-65
2023/10/14 08:38:12;;;;;;;2.10;1.90;;;;;;;;;;5033860;28;20583;-64
2023/10/14 08:40:41;;;;;;;1.37;1.27;;;;;;;;;;5033978;28;20596;-65
2023/10/14 08:43:11;;;;;;;1.50;1.40;;;;;;;;;;5032155;28;20659;-65
2023/10/14 08:45:41;;;;;;;1.40;1.30;;;;;;;;;;5032084;28;20640;-65
2023/10/14 08:48:11;;;;;;;2.40;1.30;;;;;;;;;;5032453;28;21125;-65
2023/10/14 08:50:41;;;;;;;1.77;1.40;;;;;;;;;;5031879;28;20604;-65
2023/10/14 08:53:10;;;;;;;3.63;1.50;;;;;;;;;;5031304;28;20666;-65
2023/10/14 08:55:40;;;;;;;2.73;2.53;;;;;;;;;;5031943;28;20612;-64
2023/10/14 08:58:13;;;;;;;1.83;1.73;;;;;;;;;;5032466;28;20634;-65
2023/10/14 09:00:42;;;;;;;2.30;2.10;;;;;;;;;;5031569;28;20612;-66
2023/10/14 09:03:11;;;;;;;2.23;1.90;;;;;;;;;;5031730;28;20628;-64
2023/10/14 09:05:40;;;;;;;2.27;1.70;;;;;;;;;;5030988;28;20627;-65
2023/10/14 09:08:09;;;;;;;2.30;2.03;;;;;;;;;;5032661;28;20600;-64
2023/10/14 09:10:39;;;;;;;1.70;1.60;;;;;;;;;;5026622;28;20601;-64
2023/10/14 09:13:08;;;;;;;2.50;1.90;;;;;;;;;;5014847;28;20652;-65
2023/10/14 09:15:39;;;;;;;6.03;2.10;;;;;;;;;;5031689;28;20943;-66
2023/10/14 09:18:13;;;;;;;1.90;1.80;;;;;;;;;;5032406;28;21116;-64
2023/10/14 09:20:42;;;;;;;2.27;2.17;;;;;;;;;;5030607;28;20679;-65
2023/10/14 09:23:18;;;;;;;1.70;1.60;;;;;;;;;;5032447;28;20628;-64
2023/10/14 09:25:50;;;;;;;4.40;2.10;;;;;;;;;;5024810;28;20600;-64
2023/10/14 09:28:20;;;;;;;1.73;1.63;;;;;;;;;;5033051;28;20618;-64
2023/10/14 09:30:50;;;;;;;3.43;2.17;;;;;;;;;;5032379;28;20608;-65
2023/10/14 09:33:27;;;;;;;3.37;1.80;;;;;;;;;;5014470;28;20655;-64
2023/10/14 09:35:58;;;;;;;2.20;2.00;;;;;;;;;;5030718;28;20614;-65
2023/10/14 09:38:27;;;;;;;4.03;2.00;;;;;;;;;;5014463;28;20618;-66
2023/10/14 09:40:59;;;;;;;1.67;1.57;;;;;;;;;;5012104;28;20623;-65
2023/10/14 09:43:27;;;;;;;2.40;1.93;;;;;;;;;;5017721;28;20659;-64
2023/10/14 09:45:57;;;;;;;2.37;1.60;;;;;;;;;;5031185;28;20624;-66
2023/10/14 09:48:26;;;;;;;1.63;1.40;;;;;;;;;;5031023;28;20985;-64
2023/10/14 09:50:55;;;;;;;1.60;1.50;;;;;;;;;;5031477;28;20732;-65
2023/10/14 09:53:27;;;;;;;1.93;1.40;;;;;;;;;;5030901;28;20652;-64
2023/10/14 09:55:57;;;;;;;1.60;1.13;;;;;;;;;;5031040;28;20963;-64
2023/10/14 09:58:30;;;;;;;1.60;1.50;;;;;;;;;;5014003;28;20608;-64
2023/10/14 10:00:59;;;;;;;1.73;1.00;;;;;;;;;;5031565;28;20586;-65
2023/10/14 10:03:28;;;;;;;0.70;0.70;;;;;;;;;;5030126;28;21152;-66
2023/10/14 10:06:05;;;;;;;0.80;0.80;;;;;;;;;;5030579;28;20944;-66
2023/10/14 10:08:44;;;;;;;1.27;0.87;;;;;;;;;;5035576;28;20619;-64
2023/10/14 10:11:23;;;;;;;1.20;1.10;;;;;;;;;;5020403;28;21167;-65
2023/10/14 10:13:52;;;;;;;1.17;1.00;;;;;;;;;;5026319;28;20639;-64
2023/10/14 10:16:21;;;;;;;2.53;0.77;;;;;;;;;;5034890;28;20683;-65
2023/10/14 10:18:53;;;;;;;1.00;0.73;;;;;;;;;;5034765;28;20636;-65
2023/10/14 10:21:26;;;;;;;2.40;0.70;;;;;;;;;;5035256;28;20583;-65
2023/10/14 10:23:57;;;;;;;0.80;0.80;;;;;;;;;;5034876;28;20591;-65
2023/10/14 10:26:27;;;;;;;1.00;1.00;;;;;;;;;;5034844;28;20659;-65
2023/10/14 10:28:59;;;;;;;2.10;0.80;;;;;;;;;;5033274;28;20723;-65
2023/10/14 10:31:27;;;;;;;1.27;0.90;;;;;;;;;;5029101;28;20616;-65
2023/10/14 10:33:56;;;;;;;0.70;0.70;;;;;;;;;;5034578;28;20666;-66
2023/10/14 10:36:25;;;;;;;0.90;0.90;;;;;;;;;;5035228;28;20616;-65
2023/10/14 10:38:54;;;;;;;1.67;1.20;;;;;;;;;;5034319;28;20697;-67
2023/10/14 10:41:25;;;;;;;1.10;1.10;;;;;;;;;;5034338;28;20630;-65
2023/10/14 10:44:00;;;;;;;1.40;1.30;;;;;;;;;;5028030;28;21052;-65
2023/10/14 10:46:39;;;;;;;1.20;1.10;;;;;;;;;;5023608;28;21196;-66
2023/10/14 10:49:07;;;;;;;1.13;1.13;;;;;;;;;;5028678;28;20603;-65
2023/10/14 10:51:35;;;;;;;1.00;1.00;;;;;;;;;;5034522;28;20635;-66
2023/10/14 10:54:04;;;;;;;1.57;1.10;;;;;;;;;;5034114;28;20664;-65
2023/10/14 10:56:34;;;;;;;5.50;2.60;;;;;;;;;;5034776;28;20590;-65
2023/10/14 10:59:05;;;;;;;2.43;1.80;;;;;;;;;;5033663;28;20620;-65
2023/10/14 11:01:33;;;;;;;1.63;1.53;;;;;;;;;;5034776;28;20649;-66
2023/10/14 11:04:03;;;;;;;1.93;1.70;;;;;;;;;;5034103;28;21394;-64
2023/10/14 11:06:31;;;;;;;1.53;1.50;;;;;;;;;;5034637;28;20688;-65
2023/10/14 11:09:00;;;;;;;3.10;1.90;;;;;;;;;;5034337;28;21191;-66
2023/10/14 11:11:32;;;;;;;1.63;1.53;;;;;;;;;;5034768;28;20611;-65
2023/10/14 11:14:01;;;;;;;5.13;1.33;;;;;;;;;;5016740;28;20636;-65
2023/10/14 11:16:31;;;;;;;1.67;1.27;;;;;;;;;;5034263;28;20619;-65
2023/10/14 11:18:59;;;;;;;1.90;1.80;;;;;;;;;;5032234;28;20620;-66
2023/10/14 11:21:28;;;;;;;1.53;1.53;;;;;;;;;;5033435;28;20628;-66
2023/10/14 11:23:56;;;;;;;2.20;2.10;;;;;;;;;;5033755;28;20619;-66
2023/10/14 11:26:25;;;;;;;2.60;2.50;;;;;;;;;;5034033;28;21209;-66
2023/10/14 11:28:53;;;;;;;3.30;3.10;;;;;;;;;;5033381;28;20627;-66
2023/10/14 11:31:24;;;;;;;2.60;2.50;;;;;;;;;;5034430;28;20630;-65
2023/10/14 11:33:55;;;;;;;3.20;2.90;;;;;;;;;;5027243;28;21256;-66
2023/10/14 11:36:26;;;;;;;3.60;3.40;;;;;;;;;;5028413;28;20627;-67
2023/10/14 11:38:58;;;;;;;3.50;3.40;;;;;;;;;;5039095;28;20633;-65
2023/10/14 11:41:27;;;;;;;4.00;3.80;;;;;;;;;;5020079;28;21147;-66
2023/10/14 11:43:55;;;;;;;4.30;4.10;;;;;;;;;;5031155;28;20667;-66
2023/10/14 11:46:24;;;;;;;3.80;3.70;;;;;;;;;;5031548;28;20642;-67
2023/10/14 11:48:55;;;;;;;3.30;3.20;;;;;;;;;;5033369;28;20630;-65
2023/10/14 11:51:25;;;;;;;3.60;3.50;;;;;;;;;;5033179;28;20669;-65
2023/10/14 11:53:55;;;;;;;4.00;3.80;;;;;;;;;;5033731;28;20635;-66
2023/10/14 11:56:23;;;;;;;3.70;3.60;;;;;;;;;;5033694;28;20577;-65
2023/10/14 11:58:52;;;;;;;5.00;4.53;;;;;;;;;;5033766;28;20616;-65
2023/10/14 12:01:23;;;;;;;4.00;3.90;;;;;;;;;;5033032;28;20618;-66
2023/10/14 12:03:51;;;;;;;4.60;4.40;;;;;;;;;;5032954;28;20584;-66
2023/10/14 12:06:21;;;;;;;5.10;4.80;;;;;;;;;;5033195;28;20634;-65
2023/10/14 12:08:51;;;;;;;5.30;5.00;;;;;;;;;;5033355;28;20616;-65
2023/10/14 12:11:19;;;;;;;5.20;5.00;;;;;;;;;;5033233;28;21166;-66
2023/10/14 12:13:50;;;;;;;6.13;5.93;;;;;;;;;;5033427;28;20657;-63
2023/10/14 12:16:21;;;;;;;6.00;5.80;;;;;;;;;;5033528;28;20588;-63
2023/10/14 12:18:54;;;;;;;7.20;6.57;;;;;;;;;;5033403;28;20614;-63
2023/10/14 12:21:23;;;;;;;5.87;5.67;;;;;;;;;;5033331;28;20614;-66
2023/10/14 12:23:54;;;;;;;6.10;5.80;;;;;;;;;;5033009;28;20612;-66
2023/10/14 12:26:27;;;;;;;6.07;5.67;;;;;;;;;;5033383;28;20991;-65
2023/10/14 12:28:55;;;;;;;5.57;5.27;;;;;;;;;;5014867;28;20589;-66
2023/10/14 12:31:27;;;;;;;6.40;6.10;;;;;;;;;;5033163;28;20638;-66
2023/10/14 12:33:59;;;;;;;6.07;5.70;;;;;;;;;;5024893;28;21432;-65
2023/10/14 12:36:30;;;;;;;6.53;6.30;;;;;;;;;;5032996;28;20613;-64
2023/10/14 12:39:06;;;;;;;6.40;6.10;;;;;;;;;;5027780;28;20638;-63
2023/10/14 12:41:39;;;;;;;7.23;6.63;;;;;;;;;;5033507;28;20588;-64
2023/10/14 12:44:13;;;;;;;6.67;6.30;;;;;;;;;;5025791;28;20671;-66
2023/10/14 12:46:43;;;;;;;7.67;7.17;;;;;;;;;;5033154;28;20673;-64
2023/10/14 12:49:12;;;;;;;8.13;7.53;;;;;;;;;;5033426;28;20637;-64
2023/10/14 12:51:44;;;;;;;8.00;7.03;;;;;;;;;;5015446;28;20612;-64
2023/10/14 12:54:16;;;;;;;6.50;6.00;;;;;;;;;;5014677;28;21209;-64
2023/10/14 12:56:45;;;;;;;6.23;5.97;;;;;;;;;;5031404;28;20604;-65
2023/10/14 12:59:16;;;;;;;7.00;6.40;;;;;;;;;;5032009;28;21154;-64
2023/10/14 13:01:47;;;;;;;6.53;6.23;;;;;;;;;;5029349;28;20605;-65
2023/10/14 13:04:19;;;;;;;6.93;6.53;;;;;;;;;;5030963;28;21017;-65
2023/10/14 13:06:49;;;;;;;7.03;6.60;;;;;;;;;;4993700;28;20607;-64
2023/10/14 13:09:18;;;;;;;6.23;5.90;;;;;;;;;;5012823;28;20619;-65
2023/10/14 13:11:47;;;;;;;7.00;6.50;;;;;;;;;;5015137;28;20669;-65
2023/10/14 13:14:25;;;;;;;7.20;6.60;;;;;;;;;;5020007;28;21064;-65
2023/10/14 13:16:54;;;;;;;7.07;6.60;;;;;;;;;;5027795;28;20685;-66
2023/10/14 13:19:23;;;;;;;7.13;6.77;;;;;;;;;;5030412;28;20652;-65
2023/10/14 13:21:54;;;;;;;7.83;7.23;;;;;;;;;;5022755;28;20620;-65
2023/10/14 13:24:22;;;;;;;6.80;6.30;;;;;;;;;;5032006;28;20607;-65
2023/10/14 13:26:50;;;;;;;7.30;6.63;;;;;;;;;;5030857;28;20638;-66
2023/10/14 13:29:18;;;;;;;7.53;7.07;;;;;;;;;;5033255;28;21044;-65
2023/10/14 13:31:49;;;;;;;10.83;7.20;;;;;;;;;;5029645;28;20633;-64
2023/10/14 13:34:18;;;;;;;6.83;6.43;;;;;;;;;;5031937;28;20636;-64
2023/10/14 13:36:46;;;;;;;6.80;6.30;;;;;;;;;;5032885;28;20636;-64
2023/10/14 13:39:16;;;;;;;7.10;6.73;;;;;;;;;;5033059;28;21272;-64
2023/10/14 13:41:48;;;;;;;6.80;6.30;;;;;;;;;;5032633;28;20624;-65
2023/10/14 13:44:17;;;;;;;7.70;7.20;;;;;;;;;;5025576;28;20688;-65
2023/10/14 13:46:45;;;;;;;7.57;7.10;;;;;;;;;;5033388;28;20626;-65
2023/10/14 13:49:23;;;;;;;6.83;6.30;;;;;;;;;;5033801;28;20636;-65
2023/10/14 13:51:52;;;;;;;8.63;7.97;;;;;;;;;;5032701;28;21183;-64
2023/10/14 13:54:22;;;;;;;7.47;6.93;;;;;;;;;;5033558;28;20667;-64
2023/10/14 13:56:55;;;;;;;7.37;6.87;;;;;;;;;;5033488;28;20635;-63
2023/10/14 13:59:24;;;;;;;7.57;6.77;;;;;;;;;;5024164;28;21054;-64
2023/10/14 14:01:53;;;;;;;7.37;6.77;;;;;;;;;;5016149;28;20717;-67
2023/10/14 14:04:21;;;;;;;7.27;6.60;;;;;;;;;;5034089;28;20628;-64
2023/10/14 14:06:50;;;;;;;7.10;6.60;;;;;;;;;;5015844;28;21176;-64
2023/10/14 14:09:21;;;;;;;7.83;6.90;;;;;;;;;;5034399;28;20627;-64
2023/10/14 14:11:55;;;;;;;6.97;6.50;;;;;;;;;;5033371;28;20623;-64
2023/10/14 14:14:24;;;;;;;7.47;6.80;;;;;;;;;;5030657;28;20656;-64
2023/10/14 14:16:52;;;;;;;6.87;6.50;;;;;;;;;;5000209;28;20612;-63
2023/10/14 14:19:20;;;;;;;7.00;6.60;;;;;;;;;;5034543;28;20612;-64
2023/10/14 14:21:48;;;;;;;7.13;6.70;;;;;;;;;;5032807;28;21013;-64
2023/10/14 14:24:16;;;;;;;7.87;7.20;;;;;;;;;;5016831;28;20723;-65
2023/10/14 14:26:45;;;;;;;7.20;6.80;;;;;;;;;;5034925;28;20628;-64
2023/10/14 14:29:14;;;;;;;7.50;6.90;;;;;;;;;;5034425;28;20667;-63
2023/10/14 14:31:44;;;;;;;7.63;7.13;;;;;;;;;;5034318;28;21169;-63
2023/10/14 14:34:12;;;;;;;6.80;6.40;;;;;;;;;;5034596;28;20698;-64
2023/10/14 14:36:44;;;;;;;7.20;6.80;;;;;;;;;;5016292;28;20610;-63
2023/10/14 14:39:15;;;;;;;8.93;7.67;;;;;;;;;;5033775;28;20770;-64
2023/10/14 14:41:44;;;;;;;7.63;6.73;;;;;;;;;;5032560;28;20707;-64
2023/10/14 14:44:13;;;;;;;7.27;6.77;;;;;;;;;;5029800;28;20667;-63
2023/10/14 14:46:42;;;;;;;7.50;7.00;;;;;;;;;;5021945;28;20685;-63
2023/10/14 14:49:12;;;;;;;7.60;7.10;;;;;;;;;;5026056;28;20723;-64
2023/10/14 14:51:42;;;;;;;7.40;6.90;;;;;;;;;;5032306;28;21253;-65
2023/10/14 14:54:10;;;;;;;7.20;6.70;;;;;;;;;;5036419;28;20628;-64
2023/10/14 14:56:38;;;;;;;7.87;7.07;;;;;;;;;;5031359;28;21015;-64
2023/10/14 14:59:06;;;;;;;7.70;7.20;;;;;;;;;;5028466;28;20638;-67
2023/10/14 15:01:40;;;;;;;8.00;7.20;;;;;;;;;;5034394;28;21207;-63
2023/10/14 15:04:10;;;;;;;7.17;6.57;;;;;;;;;;5025517;28;20604;-65
2023/10/14 15:06:39;;;;;;;11.13;6.33;;;;;;;;;;5035485;28;20620;-64